sensor_id;sensor_type;location;lat;lon;timestamp;pressure;altitude;pressure_sealevel;temperature;humidity
67457;BME280;54319;52.038;4.640;2023-06-10T00:01:57;101521.56;;;20.06;63.76
67457;BME280;54319;52.038;4.640;2023-06-10T00:04:25;101504.19;;;19.89;63.76
67457;BME280;54319;52.038;4.640;2023-06-10T00:06:52;101531.19;;;19.99;64.06
67457;BME280;54319;52.038;4.640;2023-06-10T00:09:20;101520.88;;;19.94;64.17
67457;BME280;54319;52.038;4.640;2023-06-10T00:11:48;101529.72;;;19.91;63.73
67457;BME280;54319;52.038;4.640;2023-06-10T00:14:14;101523.22;;;19.85;64.12
67457;BME280;54319;52.038;4.640;2023-06-10T00:16:41;101531.22;;;19.81;63.74
67457;BME280;54319;52.038;4.640;2023-06-10T00:19:10;101474.63;;;19.50;64.33
67457;BME280;54319;52.038;4.640;2023-06-10T00:21:39;101531.19;;;19.76;64.03
67457;BME280;54319;52.038;4.640;2023-06-10T00:24:07;101519.19;;;19.71;63.50
67457;BME280;54319;52.038;4.640;2023-06-10T00:26:38;101509.34;;;19.58;63.74
67457;BME280;54319;52.038;4.640;2023-06-10T00:29:06;101514.69;;;19.64;63.60
67457;BME280;54319;52.038;4.640;2023-06-10T00:31:33;101518.22;;;19.60;63.84
67457;BME280;54319;52.038;4.640;2023-06-10T00:34:00;101522.59;;;19.56;63.71
67457;BME280;54319;52.038;4.640;2023-06-10T00:36:27;101521.09;;;19.48;64.58
67457;BME280;54319;52.038;4.640;2023-06-10T00:38:53;101522.47;;;19.45;64.41
67457;BME280;54319;52.038;4.640;2023-06-10T00:41:20;101521.53;;;19.40;64.32
67457;BME280;54319;52.038;4.640;2023-06-10T00:43:48;101500.03;;;19.24;64.21
67457;BME280;54319;52.038;4.640;2023-06-10T00:46:15;101519.00;;;19.33;64.70
67457;BME280;54319;52.038;4.640;2023-06-10T00:48:43;101529.94;;;19.28;64.66
67457;BME280;54319;52.038;4.640;2023-06-10T00:51:11;101526.03;;;19.23;64.62
67457;BME280;54319;52.038;4.640;2023-06-10T00:53:40;101524.03;;;19.19;65.22
67457;BME280;54319;52.038;4.640;2023-06-10T00:56:06;101521.50;;;19.17;64.84
67457;BME280;54319;52.038;4.640;2023-06-10T00:58:33;101528.66;;;19.13;64.99
67457;BME280;54319;52.038;4.640;2023-06-10T01:01:01;101528.06;;;19.11;64.99
67457;BME280;54319;52.038;4.640;2023-06-10T01:03:29;101478.63;;;18.80;65.17
67457;BME280;54319;52.038;4.640;2023-06-10T01:06:06;101518.53;;;19.02;65.13
67457;BME280;54319;52.038;4.640;2023-06-10T01:08:39;101517.94;;;19.00;65.02
67457;BME280;54319;52.038;4.640;2023-06-10T01:11:14;101524.56;;;18.99;65.15
67457;BME280;54319;52.038;4.640;2023-06-10T01:13:45;101523.09;;;18.96;64.83
67457;BME280;54319;52.038;4.640;2023-06-10T01:16:13;101526.38;;;18.93;64.78
67457;BME280;54319;52.038;4.640;2023-06-10T01:18:40;101519.66;;;18.89;65.14
67457;BME280;54319;52.038;4.640;2023-06-10T01:21:07;101528.72;;;18.84;65.25
67457;BME280;54319;52.038;4.640;2023-06-10T01:23:36;101529.97;;;18.76;65.03
67457;BME280;54319;52.038;4.640;2023-06-10T01:26:06;101531.91;;;18.76;65.27
67457;BME280;54319;52.038;4.640;2023-06-10T01:28:40;101526.88;;;18.73;64.67
67457;BME280;54319;52.038;4.640;2023-06-10T01:31:13;101524.03;;;18.68;64.63
67457;BME280;54319;52.038;4.640;2023-06-10T01:33:46;101523.19;;;18.67;64.91
67457;BME280;54319;52.038;4.640;2023-06-10T01:36:15;101526.13;;;18.60;64.82
67457;BME280;54319;52.038;4.640;2023-06-10T01:38:45;101526.00;;;18.55;65.33
67457;BME280;54319;52.038;4.640;2023-06-10T01:41:13;101532.97;;;18.58;64.91
67457;BME280;54319;52.038;4.640;2023-06-10T01:43:42;101534.28;;;18.55;65.33
67457;BME280;54319;52.038;4.640;2023-06-10T01:46:09;101530.03;;;18.47;65.20
67457;BME280;54319;52.038;4.640;2023-06-10T01:48:37;101531.34;;;18.45;65.26
67457;BME280;54319;52.038;4.640;2023-06-10T01:51:04;101525.00;;;18.44;65.00
67457;BME280;54319;52.038;4.640;2023-06-10T01:53:31;101525.66;;;18.34;65.11
67457;BME280;54319;52.038;4.640;2023-06-10T01:55:59;101538.47;;;18.41;65.11
67457;BME280;54319;52.038;4.640;2023-06-10T01:58:26;101531.53;;;18.38;65.04
67457;BME280;54319;52.038;4.640;2023-06-10T02:00:52;101528.16;;;18.36;64.99
67457;BME280;54319;52.038;4.640;2023-06-10T02:03:19;101527.25;;;18.30;64.83
67457;BME280;54319;52.038;4.640;2023-06-10T02:05:46;101536.34;;;18.31;64.99
67457;BME280;54319;52.038;4.640;2023-06-10T02:08:13;101537.34;;;18.25;65.18
67457;BME280;54319;52.038;4.640;2023-06-10T02:10:39;101522.34;;;18.20;65.25
67457;BME280;54319;52.038;4.640;2023-06-10T02:13:07;101523.69;;;18.18;64.92
67457;BME280;54319;52.038;4.640;2023-06-10T02:15:34;101534.50;;;18.19;65.14
67457;BME280;54319;52.038;4.640;2023-06-10T02:18:03;101532.72;;;18.13;64.67
67457;BME280;54319;52.038;4.640;2023-06-10T02:20:31;101538.47;;;18.12;64.81
67457;BME280;54319;52.038;4.640;2023-06-10T02:22:58;101532.63;;;18.08;65.11
67457;BME280;54319;52.038;4.640;2023-06-10T02:25:25;101537.78;;;18.04;65.21
67457;BME280;54319;52.038;4.640;2023-06-10T02:27:52;101520.03;;;17.88;65.33
67457;BME280;54319;52.038;4.640;2023-06-10T02:30:20;101541.50;;;17.98;65.63
67457;BME280;54319;52.038;4.640;2023-06-10T02:32:47;101542.22;;;17.93;65.38
67457;BME280;54319;52.038;4.640;2023-06-10T02:35:14;101535.78;;;17.88;65.85
67457;BME280;54319;52.038;4.640;2023-06-10T02:37:41;101547.06;;;17.86;65.91
67457;BME280;54319;52.038;4.640;2023-06-10T02:40:08;101536.63;;;17.76;65.88
67457;BME280;54319;52.038;4.640;2023-06-10T02:42:35;101545.28;;;17.80;65.73
67457;BME280;54319;52.038;4.640;2023-06-10T02:45:02;101542.63;;;17.73;66.35
67457;BME280;54319;52.038;4.640;2023-06-10T02:47:30;101509.44;;;17.56;65.88
67457;BME280;54319;52.038;4.640;2023-06-10T02:49:59;101550.31;;;17.71;66.45
67457;BME280;54319;52.038;4.640;2023-06-10T02:52:26;101535.22;;;17.62;66.39
67457;BME280;54319;52.038;4.640;2023-06-10T02:54:52;101528.53;;;17.58;66.52
67457;BME280;54319;52.038;4.640;2023-06-10T02:57:22;101521.47;;;17.50;66.18
67457;BME280;54319;52.038;4.640;2023-06-10T02:59:48;101533.19;;;17.57;66.15
67457;BME280;54319;52.038;4.640;2023-06-10T03:02:16;101531.50;;;17.56;66.61
67457;BME280;54319;52.038;4.640;2023-06-10T03:04:44;101531.91;;;17.48;66.38
67457;BME280;54319;52.038;4.640;2023-06-10T03:07:11;101549.03;;;17.50;66.61
67457;BME280;54319;52.038;4.640;2023-06-10T03:09:37;101541.03;;;17.48;66.50
67457;BME280;54319;52.038;4.640;2023-06-10T03:12:05;101537.91;;;17.45;66.47
67457;BME280;54319;52.038;4.640;2023-06-10T03:14:32;101539.22;;;17.42;66.67
67457;BME280;54319;52.038;4.640;2023-06-10T03:16:59;101535.03;;;17.40;66.24
67457;BME280;54319;52.038;4.640;2023-06-10T03:19:28;101536.13;;;17.39;66.39
67457;BME280;54319;52.038;4.640;2023-06-10T03:22:06;101539.56;;;17.34;66.18
67457;BME280;54319;52.038;4.640;2023-06-10T03:24:39;101544.28;;;17.33;66.03
67457;BME280;54319;52.038;4.640;2023-06-10T03:27:12;101541.50;;;17.33;66.17
67457;BME280;54319;52.038;4.640;2023-06-10T03:29:40;101551.56;;;17.28;65.75
67457;BME280;54319;52.038;4.640;2023-06-10T03:32:07;101542.22;;;17.29;65.96
67457;BME280;54319;52.038;4.640;2023-06-10T03:34:34;101548.22;;;17.26;66.44
67457;BME280;54319;52.038;4.640;2023-06-10T03:37:02;101492.81;;;16.91;66.11
67457;BME280;54319;52.038;4.640;2023-06-10T03:39:29;101556.50;;;17.26;66.14
67457;BME280;54319;52.038;4.640;2023-06-10T03:41:55;101555.91;;;17.24;66.05
67457;BME280;54319;52.038;4.640;2023-06-10T03:44:24;101561.41;;;17.24;66.01
67457;BME280;54319;52.038;4.640;2023-06-10T03:46:51;101570.75;;;17.23;66.04
67457;BME280;54319;52.038;4.640;2023-06-10T03:49:18;101575.09;;;17.18;66.79
67457;BME280;54319;52.038;4.640;2023-06-10T03:51:44;101574.00;;;17.19;66.71
67457;BME280;54319;52.038;4.640;2023-06-10T03:54:12;101564.53;;;17.15;66.44
67457;BME280;54319;52.038;4.640;2023-06-10T03:56:39;101567.88;;;17.17;66.52
67457;BME280;54319;52.038;4.640;2023-06-10T03:59:06;101572.53;;;17.17;66.28
67457;BME280;54319;52.038;4.640;2023-06-10T04:01:32;101574.22;;;17.18;66.46
67457;BME280;54319;52.038;4.640;2023-06-10T04:04:00;101576.97;;;17.18;66.29
67457;BME280;54319;52.038;4.640;2023-06-10T04:06:27;101565.59;;;17.14;66.88
67457;BME280;54319;52.038;4.640;2023-06-10T04:08:54;101576.97;;;17.18;67.14
67457;BME280;54319;52.038;4.640;2023-06-10T04:11:23;101577.84;;;17.18;67.17
67457;BME280;54319;52.038;4.640;2023-06-10T04:13:50;101576.16;;;17.17;67.38
67457;BME280;54319;52.038;4.640;2023-06-10T04:16:17;101579.50;;;17.19;67.42
67457;BME280;54319;52.038;4.640;2023-06-10T04:18:43;101579.75;;;17.18;67.39
67457;BME280;54319;52.038;4.640;2023-06-10T04:21:10;101583.09;;;17.20;67.30
67457;BME280;54319;52.038;4.640;2023-06-10T04:23:36;101583.94;;;17.20;67.50
67457;BME280;54319;52.038;4.640;2023-06-10T04:26:04;101585.63;;;17.21;67.71
67457;BME280;54319;52.038;4.640;2023-06-10T04:28:32;101588.88;;;17.18;68.07
67457;BME280;54319;52.038;4.640;2023-06-10T04:30:58;101587.31;;;17.23;68.15
67457;BME280;54319;52.038;4.640;2023-06-10T04:33:25;101551.44;;;16.99;67.96
67457;BME280;54319;52.038;4.640;2023-06-10T04:35:53;101593.41;;;17.25;67.89
67457;BME280;54319;52.038;4.640;2023-06-10T04:38:20;101601.22;;;17.28;67.91
67457;BME280;54319;52.038;4.640;2023-06-10T04:40:46;101593.53;;;17.30;67.93
67457;BME280;54319;52.038;4.640;2023-06-10T04:43:13;101598.56;;;17.33;68.50
67457;BME280;54319;52.038;4.640;2023-06-10T04:45:41;101591.75;;;17.35;68.56
67457;BME280;54319;52.038;4.640;2023-06-10T04:48:10;101600.38;;;17.39;68.30
67457;BME280;54319;52.038;4.640;2023-06-10T04:50:36;101588.72;;;17.37;68.34
67457;BME280;54319;52.038;4.640;2023-06-10T04:53:04;101584.91;;;17.38;68.55
67457;BME280;54319;52.038;4.640;2023-06-10T04:55:31;101592.34;;;17.49;68.53
67457;BME280;54319;52.038;4.640;2023-06-10T04:57:58;101599.06;;;17.54;68.55
67457;BME280;54319;52.038;4.640;2023-06-10T05:00:25;101604.09;;;17.57;68.69
67457;BME280;54319;52.038;4.640;2023-06-10T05:02:53;101582.50;;;17.54;68.70
67457;BME280;54319;52.038;4.640;2023-06-10T05:05:21;101598.47;;;17.63;68.75
67457;BME280;54319;52.038;4.640;2023-06-10T05:07:48;101599.88;;;17.66;68.93
67457;BME280;54319;52.038;4.640;2023-06-10T05:10:14;101600.47;;;17.68;68.82
67457;BME280;54319;52.038;4.640;2023-06-10T05:12:41;101590.53;;;17.67;69.12
67457;BME280;54319;52.038;4.640;2023-06-10T05:15:08;101595.66;;;17.75;68.81
67457;BME280;54319;52.038;4.640;2023-06-10T05:17:35;101592.31;;;17.73;68.97
67457;BME280;54319;52.038;4.640;2023-06-10T05:20:04;101597.47;;;17.82;68.93
67457;BME280;54319;52.038;4.640;2023-06-10T05:22:31;101599.84;;;17.90;68.61
67457;BME280;54319;52.038;4.640;2023-06-10T05:24:59;101602.72;;;17.95;68.65
67457;BME280;54319;52.038;4.640;2023-06-10T05:27:26;101594.06;;;17.91;68.38
67457;BME280;54319;52.038;4.640;2023-06-10T05:29:52;101604.03;;;18.04;68.49
67457;BME280;54319;52.038;4.640;2023-06-10T05:32:19;101600.78;;;18.07;68.36
67457;BME280;54319;52.038;4.640;2023-06-10T05:34:46;101597.03;;;18.14;68.62
67457;BME280;54319;52.038;4.640;2023-06-10T05:37:14;101605.47;;;18.19;68.93
67457;BME280;54319;52.038;4.640;2023-06-10T05:39:40;101598.34;;;18.23;69.11
67457;BME280;54319;52.038;4.640;2023-06-10T05:42:07;101594.03;;;18.27;68.90
67457;BME280;54319;52.038;4.640;2023-06-10T05:44:35;101596.28;;;18.30;69.28
67457;BME280;54319;52.038;4.640;2023-06-10T05:47:02;101605.25;;;18.37;68.95
67457;BME280;54319;52.038;4.640;2023-06-10T05:49:29;101602.94;;;18.46;68.35
67457;BME280;54319;52.038;4.640;2023-06-10T05:51:55;101611.06;;;18.53;68.44
67457;BME280;54319;52.038;4.640;2023-06-10T05:54:25;101614.28;;;18.62;67.89
67457;BME280;54319;52.038;4.640;2023-06-10T05:56:52;101619.66;;;18.69;68.06
67457;BME280;54319;52.038;4.640;2023-06-10T05:59:18;101607.25;;;18.71;67.71
67457;BME280;54319;52.038;4.640;2023-06-10T06:01:45;101608.28;;;18.82;67.54
67457;BME280;54319;52.038;4.640;2023-06-10T06:04:11;101602.59;;;18.89;66.87
67457;BME280;54319;52.038;4.640;2023-06-10T06:06:38;101612.19;;;18.98;66.23
67457;BME280;54319;52.038;4.640;2023-06-10T06:09:06;101614.53;;;19.06;65.91
67457;BME280;54319;52.038;4.640;2023-06-10T06:11:34;101610.53;;;19.14;65.93
67457;BME280;54319;52.038;4.640;2023-06-10T06:14:01;101609.28;;;19.22;65.43
67457;BME280;54319;52.038;4.640;2023-06-10T06:16:27;101592.41;;;19.23;64.55
67457;BME280;54319;52.038;4.640;2023-06-10T06:18:54;101608.41;;;19.38;64.71
67457;BME280;54319;52.038;4.640;2023-06-10T06:21:21;101616.25;;;19.47;64.37
67457;BME280;54319;52.038;4.640;2023-06-10T06:23:47;101611.66;;;19.52;63.61
67457;BME280;54319;52.038;4.640;2023-06-10T06:26:15;101609.31;;;19.61;63.80
67457;BME280;54319;52.038;4.640;2023-06-10T06:28:43;101610.47;;;19.65;63.37
67457;BME280;54319;52.038;4.640;2023-06-10T06:31:09;101606.94;;;19.70;63.57
67457;BME280;54319;52.038;4.640;2023-06-10T06:33:36;101612.03;;;19.78;62.77
67457;BME280;54319;52.038;4.640;2023-06-10T06:36:03;101594.25;;;19.74;61.87
67457;BME280;54319;52.038;4.640;2023-06-10T06:38:30;101609.81;;;19.98;62.14
67457;BME280;54319;52.038;4.640;2023-06-10T06:40:57;101616.25;;;20.03;62.30
67457;BME280;54319;52.038;4.640;2023-06-10T06:43:28;101621.09;;;20.13;61.06
67457;BME280;54319;52.038;4.640;2023-06-10T06:45:56;101615.88;;;20.17;61.04
67457;BME280;54319;52.038;4.640;2023-06-10T06:48:22;101622.88;;;20.24;60.77
67457;BME280;54319;52.038;4.640;2023-06-10T06:50:49;101606.34;;;20.30;60.83
67457;BME280;54319;52.038;4.640;2023-06-10T06:53:16;101620.59;;;20.44;60.31
67457;BME280;54319;52.038;4.640;2023-06-10T06:55:43;101623.75;;;20.52;60.50
67457;BME280;54319;52.038;4.640;2023-06-10T06:58:10;101624.94;;;20.62;59.61
67457;BME280;54319;52.038;4.640;2023-06-10T07:00:37;101620.59;;;20.66;59.40
67457;BME280;54319;52.038;4.640;2023-06-10T07:03:05;101632.34;;;20.78;58.64
67457;BME280;54319;52.038;4.640;2023-06-10T07:05:31;101631.63;;;20.88;58.57
67457;BME280;54319;52.038;4.640;2023-06-10T07:07:58;101628.38;;;20.96;57.95
67457;BME280;54319;52.038;4.640;2023-06-10T07:10:25;101636.78;;;21.07;58.48
67457;BME280;54319;52.038;4.640;2023-06-10T07:12:52;101632.97;;;21.18;57.52
67457;BME280;54319;52.038;4.640;2023-06-10T07:15:18;101637.50;;;21.24;57.24
67457;BME280;54319;52.038;4.640;2023-06-10T07:17:45;101622.94;;;21.45;56.82
67457;BME280;54319;52.038;4.640;2023-06-10T07:20:13;101585.72;;;21.40;55.97
67457;BME280;54319;52.038;4.640;2023-06-10T07:22:41;101630.72;;;21.91;56.65
67457;BME280;54319;52.038;4.640;2023-06-10T07:25:07;101628.38;;;22.20;55.81
67457;BME280;54319;52.038;4.640;2023-06-10T07:27:34;101576.38;;;22.21;54.59
67457;BME280;54319;52.038;4.640;2023-06-10T07:30:02;101631.03;;;22.89;54.06
67457;BME280;54319;52.038;4.640;2023-06-10T07:32:30;101616.59;;;23.13;53.44
67457;BME280;54319;52.038;4.640;2023-06-10T07:34:56;101631.03;;;23.62;52.24
67457;BME280;54319;52.038;4.640;2023-06-10T07:37:24;101627.28;;;23.97;51.28
67457;BME280;54319;52.038;4.640;2023-06-10T07:39:51;101634.16;;;24.31;50.41
67457;BME280;54319;52.038;4.640;2023-06-10T07:42:17;101635.06;;;24.66;49.69
67457;BME280;54319;52.038;4.640;2023-06-10T07:44:44;101631.00;;;24.93;48.31
67457;BME280;54319;52.038;4.640;2023-06-10T07:47:11;101639.09;;;25.24;47.01
67457;BME280;54319;52.038;4.640;2023-06-10T07:49:37;101641.19;;;25.43;45.38
67457;BME280;54319;52.038;4.640;2023-06-10T07:52:05;101647.38;;;25.69;45.50
67457;BME280;54319;52.038;4.640;2023-06-10T07:54:34;101634.13;;;25.80;44.24
67457;BME280;54319;52.038;4.640;2023-06-10T07:57:00;101645.03;;;26.01;44.09
67457;BME280;54319;52.038;4.640;2023-06-10T07:59:27;101646.41;;;26.28;44.14
67457;BME280;54319;52.038;4.640;2023-06-10T08:01:53;101607.34;;;26.23;43.30
67457;BME280;54319;52.038;4.640;2023-06-10T08:04:20;101626.34;;;26.64;42.60
67457;BME280;54319;52.038;4.640;2023-06-10T08:06:47;101630.34;;;26.77;42.12
67457;BME280;54319;52.038;4.640;2023-06-10T08:09:13;101632.53;;;26.99;41.22
67457;BME280;54319;52.038;4.640;2023-06-10T08:11:41;101645.31;;;27.06;41.10
67457;BME280;54319;52.038;4.640;2023-06-10T08:14:08;101640.41;;;27.30;40.53
67457;BME280;54319;52.038;4.640;2023-06-10T08:16:35;101636.53;;;27.59;39.53
67457;BME280;54319;52.038;4.640;2023-06-10T08:19:01;101643.59;;;27.99;39.03
67457;BME280;54319;52.038;4.640;2023-06-10T08:21:28;101631.44;;;28.45;38.34
67457;BME280;54319;52.038;4.640;2023-06-10T08:23:55;101640.19;;;28.67;37.87
67457;BME280;54319;52.038;4.640;2023-06-10T08:26:22;101641.47;;;28.97;37.51
67457;BME280;54319;52.038;4.640;2023-06-10T08:28:49;101638.06;;;29.09;37.85
67457;BME280;54319;52.038;4.640;2023-06-10T08:31:16;101639.81;;;29.28;35.84
67457;BME280;54319;52.038;4.640;2023-06-10T08:33:42;101640.47;;;29.48;35.13
67457;BME280;54319;52.038;4.640;2023-06-10T08:36:09;101641.69;;;29.55;34.95
67457;BME280;54319;52.038;4.640;2023-06-10T08:38:35;101643.34;;;29.65;36.35
67457;BME280;54319;52.038;4.640;2023-06-10T08:41:04;101640.28;;;29.75;36.18
67457;BME280;54319;52.038;4.640;2023-06-10T08:43:34;101648.03;;;29.70;36.20
67457;BME280;54319;52.038;4.640;2023-06-10T08:46:02;101611.53;;;29.47;37.22
67457;BME280;54319;52.038;4.640;2023-06-10T08:48:29;101646.53;;;29.72;38.16
67457;BME280;54319;52.038;4.640;2023-06-10T08:50:57;101645.06;;;29.75;36.87
67457;BME280;54319;52.038;4.640;2023-06-10T08:53:24;101644.59;;;29.82;37.27
67457;BME280;54319;52.038;4.640;2023-06-10T08:55:53;101631.34;;;29.82;35.61
67457;BME280;54319;52.038;4.640;2023-06-10T08:58:22;101639.97;;;29.86;35.81
67457;BME280;54319;52.038;4.640;2023-06-10T09:00:49;101627.47;;;29.60;36.65
67457;BME280;54319;52.038;4.640;2023-06-10T09:03:18;101635.41;;;29.58;37.18
67457;BME280;54319;52.038;4.640;2023-06-10T09:05:45;101641.38;;;29.66;36.61
67457;BME280;54319;52.038;4.640;2023-06-10T09:08:12;101644.88;;;29.40;36.76
67457;BME280;54319;52.038;4.640;2023-06-10T09:10:41;101619.22;;;29.10;36.96
67457;BME280;54319;52.038;4.640;2023-06-10T09:13:07;101636.84;;;29.24;38.31
67457;BME280;54319;52.038;4.640;2023-06-10T09:15:34;101633.91;;;29.29;37.98
67457;BME280;54319;52.038;4.640;2023-06-10T09:18:00;101638.53;;;29.34;37.90
67457;BME280;54319;52.038;4.640;2023-06-10T09:20:28;101635.03;;;29.51;37.44
67457;BME280;54319;52.038;4.640;2023-06-10T09:22:55;101642.69;;;29.59;35.80
67457;BME280;54319;52.038;4.640;2023-06-10T09:25:33;101643.19;;;29.62;35.18
67457;BME280;54319;52.038;4.640;2023-06-10T09:28:00;101647.66;;;29.63;35.47
67457;BME280;54319;52.038;4.640;2023-06-10T09:30:27;101649.22;;;29.78;35.44
67457;BME280;54319;52.038;4.640;2023-06-10T09:32:54;101644.22;;;30.06;36.79
67457;BME280;54319;52.038;4.640;2023-06-10T09:35:22;101644.50;;;29.96;35.66
67457;BME280;54319;52.038;4.640;2023-06-10T09:37:51;101649.78;;;29.97;34.72
67457;BME280;54319;52.038;4.640;2023-06-10T09:40:18;101640.41;;;30.11;35.67
67457;BME280;54319;52.038;4.640;2023-06-10T09:42:45;101655.50;;;30.24;33.75
67457;BME280;54319;52.038;4.640;2023-06-10T09:45:14;101647.88;;;30.24;33.90
67457;BME280;54319;52.038;4.640;2023-06-10T09:47:41;101653.03;;;30.31;35.97
67457;BME280;54319;52.038;4.640;2023-06-10T09:50:07;101641.78;;;30.31;36.52
67457;BME280;54319;52.038;4.640;2023-06-10T09:52:36;101644.28;;;30.41;36.62
67457;BME280;54319;52.038;4.640;2023-06-10T09:55:08;101648.47;;;30.70;35.13
67457;BME280;54319;52.038;4.640;2023-06-10T09:57:35;101635.88;;;30.68;35.18
67457;BME280;54319;52.038;4.640;2023-06-10T10:00:04;101642.16;;;30.82;35.21
67457;BME280;54319;52.038;4.640;2023-06-10T10:02:32;101649.44;;;30.92;35.23
67457;BME280;54319;52.038;4.640;2023-06-10T10:05:02;101641.78;;;31.01;34.57
67457;BME280;54319;52.038;4.640;2023-06-10T10:07:29;101644.97;;;31.09;34.95
67457;BME280;54319;52.038;4.640;2023-06-10T10:09:56;101636.50;;;31.26;34.31
67457;BME280;54319;52.038;4.640;2023-06-10T10:12:24;101634.75;;;31.43;34.39
67457;BME280;54319;52.038;4.640;2023-06-10T10:14:52;101631.31;;;31.37;34.60
67457;BME280;54319;52.038;4.640;2023-06-10T10:17:20;101631.47;;;31.41;34.16
67457;BME280;54319;52.038;4.640;2023-06-10T10:19:54;101631.22;;;31.64;34.15
67457;BME280;54319;52.038;4.640;2023-06-10T10:22:25;101628.69;;;31.80;34.43
67457;BME280;54319;52.038;4.640;2023-06-10T10:24:55;101626.16;;;31.87;34.54
67457;BME280;54319;52.038;4.640;2023-06-10T10:27:27;101636.00;;;31.81;34.15
67457;BME280;54319;52.038;4.640;2023-06-10T10:29:54;101621.56;;;31.73;33.46
67457;BME280;54319;52.038;4.640;2023-06-10T10:32:27;101620.09;;;31.67;33.25
67457;BME280;54319;52.038;4.640;2023-06-10T10:35:03;101610.03;;;31.57;34.90
67457;BME280;54319;52.038;4.640;2023-06-10T10:37:32;101620.03;;;31.46;33.43
67457;BME280;54319;52.038;4.640;2023-06-10T10:40:00;101622.53;;;31.86;34.35
67457;BME280;54319;52.038;4.640;2023-06-10T10:42:29;101613.66;;;31.97;33.64
67457;BME280;54319;52.038;4.640;2023-06-10T10:44:57;101612.06;;;31.87;32.90
67457;BME280;54319;52.038;4.640;2023-06-10T10:47:26;101622.41;;;32.04;32.97
67457;BME280;54319;52.038;4.640;2023-06-10T10:49:54;101616.13;;;31.98;32.68
67457;BME280;54319;52.038;4.640;2023-06-10T10:52:24;101617.06;;;32.11;32.01
67457;BME280;54319;52.038;4.640;2023-06-10T10:54:53;101614.44;;;32.36;32.44
67457;BME280;54319;52.038;4.640;2023-06-10T10:57:21;101577.03;;;32.39;32.07
67457;BME280;54319;52.038;4.640;2023-06-10T10:59:55;101606.63;;;32.75;31.15
67457;BME280;54319;52.038;4.640;2023-06-10T11:02:35;101593.97;;;32.60;30.70
67457;BME280;54319;52.038;4.640;2023-06-10T11:05:04;101606.13;;;32.95;31.39
67457;BME280;54319;52.038;4.640;2023-06-10T11:07:32;101612.28;;;33.09;30.86
67457;BME280;54319;52.038;4.640;2023-06-10T11:09:59;101596.88;;;33.19;29.92
67457;BME280;54319;52.038;4.640;2023-06-10T11:12:41;101597.63;;;33.41;30.91
67457;BME280;54319;52.038;4.640;2023-06-10T11:15:09;101599.09;;;33.47;28.52
67457;BME280;54319;52.038;4.640;2023-06-10T11:17:36;101589.13;;;33.28;29.59
67457;BME280;54319;52.038;4.640;2023-06-10T11:20:04;101589.50;;;33.27;29.59
67457;BME280;54319;52.038;4.640;2023-06-10T11:22:30;101591.53;;;33.51;29.82
67457;BME280;54319;52.038;4.640;2023-06-10T11:24:57;101598.94;;;33.43;26.08
67457;BME280;54319;52.038;4.640;2023-06-10T11:27:24;101587.94;;;33.29;27.09
67457;BME280;54319;52.038;4.640;2023-06-10T11:29:58;101586.00;;;33.42;26.96
67457;BME280;54319;52.038;4.640;2023-06-10T11:32:30;101580.13;;;33.60;26.48
67457;BME280;54319;52.038;4.640;2023-06-10T11:34:57;101576.69;;;33.67;26.04
67457;BME280;54319;52.038;4.640;2023-06-10T11:37:24;101580.00;;;33.56;26.36
67457;BME280;54319;52.038;4.640;2023-06-10T11:39:52;101585.53;;;33.65;25.87
67457;BME280;54319;52.038;4.640;2023-06-10T11:42:19;101559.25;;;33.52;24.80
67457;BME280;54319;52.038;4.640;2023-06-10T11:44:49;101579.03;;;33.65;25.26
67457;BME280;54319;52.038;4.640;2023-06-10T11:47:17;101574.22;;;33.65;25.16
67457;BME280;54319;52.038;4.640;2023-06-10T11:49:45;101582.81;;;33.56;25.02
67457;BME280;54319;52.038;4.640;2023-06-10T11:52:26;101576.06;;;33.36;25.97
67457;BME280;54319;52.038;4.640;2023-06-10T11:54:53;101575.50;;;33.55;25.29
67457;BME280;54319;52.038;4.640;2023-06-10T11:57:20;101576.22;;;33.52;25.04
67457;BME280;54319;52.038;4.640;2023-06-10T11:59:46;101579.13;;;33.31;26.10
67457;BME280;54319;52.038;4.640;2023-06-10T12:02:15;101572.22;;;33.66;24.14
67457;BME280;54319;52.038;4.640;2023-06-10T12:04:41;101579.31;;;33.72;25.13
67457;BME280;54319;52.038;4.640;2023-06-10T12:07:17;101567.63;;;33.61;24.33
67457;BME280;54319;52.038;4.640;2023-06-10T12:09:43;101559.72;;;33.79;23.80
67457;BME280;54319;52.038;4.640;2023-06-10T12:12:10;101565.94;;;33.85;23.92
67457;BME280;54319;52.038;4.640;2023-06-10T12:14:50;101560.91;;;33.78;23.76
67457;BME280;54319;52.038;4.640;2023-06-10T12:17:19;101567.00;;;33.92;24.96
67457;BME280;54319;52.038;4.640;2023-06-10T12:19:47;101566.53;;;34.15;24.06
67457;BME280;54319;52.038;4.640;2023-06-10T12:22:15;101564.84;;;34.27;23.65
67457;BME280;54319;52.038;4.640;2023-06-10T12:24:45;101566.88;;;34.42;23.63
67457;BME280;54319;52.038;4.640;2023-06-10T12:27:12;101558.47;;;34.58;24.31
67457;BME280;54319;52.038;4.640;2023-06-10T12:29:39;101563.66;;;34.85;23.77
67457;BME280;54319;52.038;4.640;2023-06-10T12:32:07;101556.22;;;34.64;22.61
67457;BME280;54319;52.038;4.640;2023-06-10T12:34:35;101558.25;;;34.80;23.14
67457;BME280;54319;52.038;4.640;2023-06-10T12:37:04;101560.38;;;34.99;22.81
67457;BME280;54319;52.038;4.640;2023-06-10T12:39:33;101559.16;;;35.12;22.00
67457;BME280;54319;52.038;4.640;2023-06-10T12:42:00;101555.22;;;34.72;23.62
67457;BME280;54319;52.038;4.640;2023-06-10T12:44:34;101559.16;;;34.68;22.80
67457;BME280;54319;52.038;4.640;2023-06-10T12:47:07;101557.75;;;34.61;23.24
67457;BME280;54319;52.038;4.640;2023-06-10T12:49:35;101559.47;;;34.95;23.53
67457;BME280;54319;52.038;4.640;2023-06-10T12:52:02;101553.81;;;34.95;22.01
67457;BME280;54319;52.038;4.640;2023-06-10T12:54:28;101563.53;;;35.10;21.71